createdAt,value
2017-08-11T04:31:38.450Z,6.97
2017-08-11T04:34:06.699Z,8.20
2017-08-11T04:36:35.078Z,5.30
2017-08-11T04:39:03.371Z,4.63
2017-08-11T04:41:31.631Z,5.57
2017-08-11T04:44:00.011Z,4.97
2017-08-11T04:46:28.385Z,6.17
2017-08-11T04:48:56.675Z,4.70
2017-08-11T04:51:24.930Z,9.70
2017-08-11T04:53:53.219Z,9.30
2017-08-11T04:56:21.885Z,9.37
2017-08-11T04:58:50.187Z,5.80
2017-08-11T05:01:18.475Z,4.83
2017-08-11T05:03:46.991Z,4.60
2017-08-11T05:06:16.143Z,3.10
2017-08-11T05:08:44.590Z,4.43
2017-08-11T05:11:12.898Z,3.57
2017-08-11T05:13:41.178Z,3.90
2017-08-11T05:16:10.370Z,6.60
2017-08-11T05:18:38.731Z,2.83
2017-08-11T05:21:07.254Z,8.07
2017-08-11T05:23:35.612Z,6.00
2017-08-11T05:26:03.886Z,6.77
2017-08-11T05:28:32.166Z,7.93
2017-08-11T05:31:00.540Z,2.60
2017-08-11T05:33:28.919Z,2.30
2017-08-11T05:35:57.167Z,1.97
2017-08-11T05:38:25.578Z,2.03
2017-08-11T05:40:53.861Z,1.33
2017-08-11T05:43:22.367Z,1.50
2017-08-11T05:45:51.382Z,2.07
2017-08-11T05:48:19.669Z,1.57
2017-08-11T05:50:47.998Z,3.40
2017-08-11T05:53:16.694Z,3.63
2017-08-11T05:55:44.947Z,3.63
2017-08-11T05:58:13.231Z,6.40
2017-08-11T06:00:41.483Z,1.87
2017-08-11T06:03:10.041Z,3.20
2017-08-11T06:05:38.372Z,1.73
2017-08-11T06:08:06.734Z,2.07
2017-08-11T06:10:35.010Z,3.40
2017-08-11T06:13:03.391Z,2.70
2017-08-11T06:15:31.667Z,6.43
2017-08-11T06:17:59.985Z,2.80
2017-08-11T06:20:29.038Z,1.90
2017-08-11T06:22:57.332Z,2.33
2017-08-11T06:25:25.598Z,2.40
2017-08-11T06:27:53.971Z,2.20
2017-08-11T15:00:36.831Z,18.97
2017-08-11T15:03:05.900Z,23.67
2017-08-11T15:05:34.162Z,20.67
2017-08-11T15:08:02.556Z,17.20
2017-08-11T15:10:30.819Z,19.00
2017-08-11T15:12:59.194Z,12.47
2017-08-11T15:15:27.492Z,18.30
2017-08-11T15:17:55.846Z,14.40
2017-08-11T15:20:24.106Z,15.23
2017-08-11T15:22:52.391Z,16.53
2017-08-11T15:25:20.787Z,18.03
2017-08-11T15:27:49.085Z,17.37
2017-08-11T15:30:17.438Z,15.37
2017-08-11T15:32:45.818Z,18.00
2017-08-11T15:35:14.098Z,16.87
2017-08-11T15:37:42.386Z,19.10
2017-08-11T15:40:10.754Z,25.27
2017-08-11T15:42:39.051Z,16.57
2017-08-11T15:45:08.699Z,23.00
2017-08-11T15:47:37.019Z,20.10
2017-08-11T15:50:05.287Z,18.20
2017-08-11T15:52:33.663Z,18.37
2017-08-11T15:55:01.922Z,17.77
2017-08-11T15:57:30.322Z,23.70
2017-08-11T15:59:58.578Z,19.40
2017-08-11T16:02:26.890Z,19.37
2017-08-11T16:04:55.154Z,16.97
2017-08-11T16:07:23.535Z,16.67
2017-08-11T16:09:51.791Z,20.30
2017-08-11T16:12:20.087Z,20.47
2017-08-11T16:14:48.367Z,19.43
2017-08-11T16:17:16.630Z,22.97
2017-08-11T16:19:44.928Z,29.53
2017-08-11T16:22:13.267Z,24.30
2017-08-11T16:24:41.562Z,23.13
2017-08-11T16:27:10.279Z,28.13
2017-08-11T16:29:38.630Z,25.83
2017-08-11T16:32:06.894Z,27.10
2017-08-11T16:34:35.282Z,27.90
2017-08-11T16:37:03.562Z,27.97
2017-08-11T16:39:31.939Z,31.30
2017-08-11T16:42:00.223Z,32.20
2017-08-11T16:44:28.594Z,29.13
2017-08-11T16:46:56.871Z,35.27
2017-08-11T16:49:25.257Z,31.97
2017-08-11T16:51:53.526Z,36.50
2017-08-11T16:54:21.859Z,38.57
2017-08-11T16:56:51.032Z,31.80
2017-08-11T16:59:19.362Z,30.80
2017-08-11T17:01:47.763Z,28.67
2017-08-11T17:04:16.144Z,36.83
2017-08-11T17:06:44.399Z,33.97
2017-08-11T17:09:12.687Z,28.13
2017-08-11T17:11:40.955Z,31.67
2017-08-11T17:14:09.260Z,33.47
2017-08-11T17:16:37.622Z,38.23
2017-08-11T17:19:05.980Z,35.13
2017-08-11T17:21:34.278Z,32.80
2017-08-11T17:24:02.673Z,34.10
2017-08-11T17:26:30.932Z,34.40
2017-08-11T17:28:59.221Z,38.03
2017-08-11T17:31:27.478Z,30.00
2017-08-11T17:33:55.771Z,34.87
2017-08-11T17:36:24.062Z,25.97
2017-08-11T17:38:52.414Z,28.60
2017-08-11T17:41:20.806Z,26.47
2017-08-11T17:43:49.083Z,27.77
2017-08-11T17:46:17.450Z,29.83
2017-08-11T17:48:45.730Z,28.20
2017-08-11T17:51:14.019Z,27.40
2017-08-11T17:53:42.387Z,26.80
2017-08-11T17:56:10.774Z,25.37
2017-08-11T17:58:39.043Z,25.67
2017-08-11T18:01:07.351Z,22.67
2017-08-11T18:03:36.419Z,24.30
2017-08-11T18:06:04.707Z,25.53
2017-08-11T18:08:33.071Z,28.23
2017-08-11T18:11:01.468Z,30.20
2017-08-11T18:13:29.730Z,32.63
2017-08-11T18:15:58.019Z,32.27
2017-08-11T18:18:26.374Z,40.77
2017-08-11T18:20:54.986Z,36.90
2017-08-11T18:23:23.254Z,36.10
2017-08-11T18:25:51.547Z,36.90
2017-08-11T18:28:20.575Z,42.67
2017-08-11T18:30:48.867Z,44.13
2017-08-11T18:33:17.167Z,51.10
2017-08-11T18:35:45.562Z,45.80
2017-08-11T18:38:13.807Z,44.40
2017-08-11T18:40:42.210Z,59.60
2017-08-11T18:43:10.515Z,51.53
2017-08-11T18:45:39.570Z,53.97
2017-08-11T18:48:07.884Z,55.60
2017-08-11T18:50:36.923Z,55.93
2017-08-11T18:53:05.260Z,57.77
2017-08-11T18:55:34.327Z,55.47
2017-08-11T18:58:02.694Z,56.10
2017-08-11T19:00:31.002Z,61.07
2017-08-11T19:03:00.079Z,52.37
2017-08-11T19:05:28.378Z,57.70
2017-08-11T19:07:57.444Z,55.13
2017-08-11T19:10:25.747Z,52.23
2017-08-11T19:12:54.824Z,58.53
2017-08-11T19:15:23.196Z,48.13
2017-08-11T19:17:51.469Z,45.50
2017-08-11T19:20:19.864Z,57.27
2017-08-11T19:22:48.903Z,53.90
2017-08-11T19:25:17.222Z,49.23
2017-08-11T19:27:45.525Z,62.70
2017-08-11T19:30:14.599Z,57.97
2017-08-11T19:32:42.879Z,59.37
2017-08-11T19:35:11.207Z,62.60
2017-08-11T19:37:39.508Z,59.10
2017-08-11T19:40:07.773Z,66.10
2017-08-11T19:42:36.085Z,70.23
2017-08-11T19:45:04.355Z,71.03
2017-08-11T19:47:32.745Z,60.23
2017-08-11T19:50:01.028Z,64.47
2017-08-11T19:52:29.388Z,72.03
2017-08-11T19:54:57.702Z,69.87
2017-08-11T19:57:27.187Z,82.87
2017-08-11T19:59:55.664Z,75.43
2017-08-11T20:02:24.676Z,76.60
2017-08-11T20:04:54.654Z,71.40
2017-08-11T20:07:23.017Z,72.40
2017-08-11T20:09:51.281Z,83.80
2017-08-11T20:12:20.259Z,82.90
2017-08-11T20:14:49.288Z,72.33
2017-08-11T20:17:17.691Z,69.23
2017-08-11T20:19:45.988Z,83.23
2017-08-11T20:22:15.019Z,76.77
2017-08-11T20:24:43.315Z,78.73
2017-08-11T20:27:11.623Z,74.23
2017-08-11T20:29:39.905Z,63.67
2017-08-11T20:32:09.024Z,64.47
2017-08-11T20:34:37.366Z,60.00
2017-08-11T20:37:05.643Z,69.80
2017-08-11T20:39:33.934Z,70.60
2017-08-11T20:42:03.007Z,63.57
2017-08-11T20:44:31.303Z,54.73
2017-08-11T20:47:00.484Z,58.63
2017-08-11T20:49:28.871Z,52.20
2017-08-11T20:51:57.235Z,49.90
2017-08-11T20:54:25.616Z,53.00
2017-08-11T20:56:53.889Z,61.07
2017-08-11T20:59:22.380Z,55.17
2017-08-11T21:01:50.661Z,54.13
2017-08-11T21:04:18.966Z,63.83
2017-08-11T21:06:47.241Z,63.83
2017-08-11T21:09:16.303Z,63.20
2017-08-11T21:11:44.671Z,65.50
2017-08-11T21:14:13.066Z,62.13
2017-08-11T21:16:41.324Z,70.57
2017-08-11T21:19:09.615Z,65.97
2017-08-11T21:21:37.918Z,69.60
2017-08-11T21:24:07.193Z,60.43
2017-08-11T21:26:35.465Z,52.33
2017-08-11T21:29:03.767Z,64.67
2017-08-11T21:31:32.043Z,56.83
2017-08-11T21:34:01.126Z,60.00
2017-08-11T21:36:29.379Z,54.90
2017-08-11T21:38:57.670Z,58.70
2017-08-11T21:41:25.927Z,54.30
2017-08-11T21:43:54.224Z,56.40
2017-08-11T21:46:22.587Z,59.20
2017-08-11T21:48:50.967Z,51.90
2017-08-11T21:51:19.238Z,48.43
2017-08-11T21:53:47.535Z,43.73
2017-08-11T21:56:15.915Z,51.30
2017-08-11T21:58:44.270Z,50.03
2017-08-11T22:01:12.650Z,47.00
2017-08-11T22:03:41.032Z,46.17
2017-08-11T22:06:09.411Z,45.67
2017-08-11T22:08:37.686Z,47.20
2017-08-11T22:11:05.974Z,40.07
2017-08-11T22:13:34.574Z,39.40
2017-08-11T22:16:02.875Z,42.73
2017-08-11T22:18:31.203Z,39.13
2017-08-11T22:20:59.479Z,44.70
2017-08-11T22:23:28.090Z,44.33
2017-08-11T22:25:56.427Z,51.10
2017-08-11T22:28:25.631Z,47.30
2017-08-11T22:30:54.023Z,42.90
2017-08-11T22:33:22.279Z,45.00
2017-08-11T22:35:50.575Z,41.60
2017-08-11T22:38:18.846Z,35.60
2017-08-11T22:40:47.135Z,37.13
2017-08-11T22:43:15.438Z,39.30
2017-08-11T22:45:44.831Z,34.00
2017-08-11T22:48:13.182Z,35.50
2017-08-11T22:50:41.479Z,42.13
2017-08-11T22:53:09.739Z,39.33
2017-08-11T22:55:38.123Z,42.33
2017-08-11T22:58:06.723Z,39.63
2017-08-11T23:00:35.182Z,40.43
2017-08-11T23:03:03.459Z,37.10
2017-08-11T23:05:31.752Z,35.70
2017-08-11T23:08:00.035Z,34.57
2017-08-11T23:10:28.334Z,31.17
2017-08-11T23:12:56.662Z,34.80
